Latest Coastal Weather Observations for Point Fawcett

IDD60701

Issued at 5:41 pm CST Wednesday 23 August 2017 (issued every 10 minutes, with the page automatically refreshed every 10 minutes)

About coastal observations | Map of coastal stations | Coastal observations for NT | Marine services | Other Formats
Station Details ID: 200731 Name: POINT FAWCETT Lat: -11.76 Lon: 130.03 Height: 6.5 m
Data from the previous 72 hours. | See also: Recent months at Point Fawcett
Date/Time
CST
Temp
°C
Wind Pressure Rain since
9am
mm
Weather Cloud Vis
km
Sea
Height
m
Swell
Dir  Spd
kts
Gust
kts
hPa Trend Height
m
Period
s
Dir
23/05:30pm 29.3 SW 7 11 1012.2 - 0.0 - - - - - - -
23/05:00pm 30.0 SW 7 10 1012.3 - 0.0 - - - - - - -
23/04:30pm 30.8 WSW 7 9 1012.3 - 0.0 - - - - - - -
23/04:00pm 30.1 W 7 10 1012.4 - 0.0 - - - - - - -
23/03:30pm 32.1 NW 7 9 1012.4 - 0.0 - - - - - - -
23/03:00pm 31.4 NNW 8 10 1012.7 - 0.0 - - - - - - -
23/02:30pm 29.0 NNW 10 13 1012.9 - 0.0 - - - - - - -
23/02:00pm 30.0 W 5 7 1013.2 - 0.0 - - - - - - -
23/01:30pm 29.7 WSW 5 7 1013.7 - 0.0 - - - - - - -
23/01:00pm 29.4 N 4 6 1014.0 - 0.0 - - - - - - -
23/12:30pm 31.0 ENE 6 10 1014.3 - 0.0 - - - - - - -
23/12:00pm 32.3 E 7 11 1014.7 - 0.0 - - - - - - -
23/11:30am 31.1 E 6 12 1015.3 - 0.0 - - - - - - -
23/11:00am 30.8 E 9 14 1015.4 - 0.0 - - - - - - -
23/10:30am 29.4 E 8 11 1015.7 - 0.0 - - - - - - -
23/10:00am 28.9 ENE 8 13 1015.8 - 0.0 - - - - - - -
23/09:30am 28.2 ENE 7 11 1015.7 - 0.0 - - - - - - -
23/09:00am 27.0 ENE 6 9 1015.6 - 0.0 - - - - - - -
23/08:30am 25.3 ENE 6 8 1015.5 - 0.0 - - - - - - -
23/08:00am 22.9 ENE 4 6 1015.3 - 0.0 - - - - - - -
23/07:30am 19.8 E 4 6 1015.2 - 0.0 - - - - - - -
23/07:00am 19.5 E 5 6 1014.9 - 0.0 - - - - - - -
23/06:30am 18.9 ESE 4 5 1014.7 - 0.0 - - - - - - -
23/06:00am 19.6 E 4 5 1014.4 - 0.0 - - - - - - -
23/05:30am 20.4 E 4 5 1014.2 - 0.0 - - - - - - -
23/05:00am 18.9 E 5 6 1014.2 - 0.0 - - - - - - -
23/04:30am 18.8 ESE 4 5 1013.8 - 0.0 - - - - - - -
23/04:00am 19.0 ESE 4 6 1013.8 - 0.0 - - - - - - -
23/03:30am 19.1 ESE 5 6 1013.7 - 0.0 - - - - - - -
23/03:00am 19.2 ESE 4 5 1013.8 - 0.0 - - - - - - -
23/02:30am 19.5 SE 4 5 1013.8 - 0.0 - - - - - - -
23/02:00am 19.7 SE 4 5 1013.9 - 0.0 - - - - - - -
23/01:30am 19.6 ESE 4 5 1014.0 - 0.0 - - - - - - -
23/01:00am 20.0 E 4 5 1014.1 - 0.0 - - - - - - -
23/12:30am 20.8 E 5 6 1014.1 - 0.0 - - - - - - -
23/12:00am 20.4 E 4 5 1014.0 - 0.0 - - - - - - -
 
Date/Time
CST
Temp
°C
Wind Pressure Rain since
9am
mm
Weather Cloud Vis
km
Sea
Height
m
Swell
Dir  Spd
kts
Gust
kts
hPa Trend Height
m
Period
s
Dir
22/11:30pm 20.8 ENE 4 5 1014.0 - 0.0 - - - - - - -
22/11:00pm 21.9 ENE 4 5 1014.0 - 0.0 - - - - - - -
22/10:30pm 21.8 E 4 5 1013.9 - 0.0 - - - - - - -
22/10:00pm 22.8 E 4 5 1013.6 - 0.0 - - - - - - -
22/09:30pm 24.4 E 4 6 1013.2 - 0.0 - - - - - - -
22/09:00pm 26.0 NW 5 6 1012.9 - 0.0 - - - - - - -
22/08:30pm 26.8 NNW 6 8 1012.5 - 0.0 - - - - - - -
22/08:00pm 26.7 NNW 8 11 1012.2 - 0.0 - - - - - - -
22/07:30pm 26.9 NNW 9 12 1011.9 - 0.0 - - - - - - -
22/07:00pm 26.9 NNW 10 13 1011.7 - 0.0 - - - - - - -
22/06:30pm 27.8 NNW 10 13 1011.5 - 0.0 - - - - - - -
22/06:00pm 29.5 NNW 7 11 1011.3 - 0.0 - - - - - - -
22/05:30pm 30.0 NNW 6 8 1011.1 - 0.0 - - - - - - -
22/05:00pm 30.9 N 5 8 1011.2 - 0.0 - - - - - - -
22/04:30pm 31.3 N 5 8 1011.2 - 0.0 - - - - - - -
22/04:00pm 31.5 N 5 7 1011.2 - 0.0 - - - - - - -
22/03:30pm 30.5 SE 6 11 1011.3 - 0.0 - - - - - - -
22/03:00pm 30.0 ESE 6 13 1011.6 - 0.0 - - - - - - -
22/02:30pm 30.0 SSE 9 16 1011.5 - 0.0 - - - - - - -
22/02:00pm 32.2 SSE 8 13 1011.9 - 0.0 - - - - - - -
22/01:30pm 32.9 SE 5 11 1012.4 - 0.0 - - - - - - -
22/01:00pm 31.7 ESE 5 9 1012.9 - 0.0 - - - - - - -
22/12:30pm 30.4 WSW 8 12 1013.5 - 0.0 - - - - - - -
22/12:00pm 30.6 NNW 4 6 1013.7 - 0.0 - - - - - - -
22/11:30am 30.7 ENE 7 11 1014.2 - 0.0 - - - - - - -
22/11:00am 30.2 NE 7 12 1014.6 - 0.0 - - - - - - -
22/10:30am 30.5 NE 7 13 1014.7 - 0.0 - - - - - - -
22/10:00am 29.7 NE 7 11 1014.7 - 0.0 - - - - - - -
22/09:30am 28.5 ENE 5 9 1014.7 - 0.0 - - - - - - -
22/09:00am 27.3 E 6 9 1014.5 - 0.0 - - - - - - -
22/08:30am 25.5 ESE 4 6 1014.5 - 0.0 - - - - - - -
22/08:00am 23.1 ESE 4 6 1014.2 - 0.0 - - - - - - -
22/07:30am 20.9 ESE 5 6 1014.0 - 0.0 - - - - - - -
22/07:00am 20.2 ESE 5 6 1013.5 - 0.0 - - - - - - -
22/06:30am 19.9 ESE 4 6 1013.2 - 0.0 - - - - - - -
22/06:00am 19.9 E 5 7 1012.8 - 0.0 - - - - - - -
22/05:30am 19.8 ESE 4 5 1012.5 - 0.0 - - - - - - -
22/05:00am 20.3 ESE 5 6 1012.4 - 0.0 - - - - - - -
22/04:30am 20.6 ESE 5 6 1012.2 - 0.0 - - - - - - -
22/04:00am 21.0 ESE 5 8 1012.2 - 0.0 - - - - - - -
22/03:30am 20.3 ESE 5 6 1012.3 - 0.0 - - - - - - -
22/03:00am 19.5 ESE 5 6 1012.4 - 0.0 - - - - - - -
22/02:30am 19.4 ESE 5 6 1012.5 - 0.0 - - - - - - -
22/02:00am 19.7 SE 4 5 1012.7 - 0.0 - - - - - - -
22/01:30am 20.1 ESE 3 4 1012.8 - 0.0 - - - - - - -
22/01:00am 20.7 ESE 3 3 1012.9 - 0.0 - - - - - - -
22/12:30am 21.9 E 3 4 1012.9 - 0.0 - - - - - - -
22/12:00am 23.3 ESE 4 5 1013.0 - 0.0 - - - - - - -
 
Date/Time
CST
Temp
°C
Wind Pressure Rain since
9am
mm
Weather Cloud Vis
km
Sea
Height
m
Swell
Dir  Spd
kts
Gust
kts
hPa Trend Height
m
Period
s
Dir
21/11:30pm 24.6 E 5 7 1013.0 - 0.0 - - - - - - -
21/11:00pm 25.1 ENE 5 7 1013.0 - 0.0 - - - - - - -
21/10:30pm 25.7 NE 6 8 1012.9 - 0.0 - - - - - - -
21/10:00pm 26.2 NNE 6 9 1012.8 - 0.0 - - - - - - -
21/09:30pm 26.4 NW 6 8 1012.6 - 0.0 - - - - - - -
21/09:00pm 26.5 NW 7 9 1012.3 - 0.0 - - - - - - -
21/08:30pm 26.4 NNW 7 9 1011.9 - 0.0 - - - - - - -
21/08:00pm 26.5 NW 7 9 1011.6 - 0.0 - - - - - - -
21/07:30pm 26.7 NW 7 9 1011.3 - 0.0 - - - - - - -
21/07:00pm 27.0 NW 9 11 1010.9 - 0.0 - - - - - - -
21/06:30pm 27.9 NNW 9 12 1010.4 - 0.0 - - - - - - -
21/06:00pm 29.2 NNW 10 13 1010.1 - 0.0 - - - - - - -
21/05:30pm 30.6 N 8 11 1010.1 - 0.0 - - - - - - -
21/05:00pm 31.7 N 7 10 1009.8 - 0.0 - - - - - - -
21/04:30pm 31.7 N 7 11 1009.6 - 0.0 - - - - - - -
21/04:00pm 33.1 ENE 8 12 1009.6 - 0.0 - - - - - - -
21/03:30pm 32.4 SE 7 12 1009.8 - 0.0 - - - - - - -
21/03:00pm 31.7 SSE 8 12 1010.2 - 0.0 - - - - - - -
21/02:30pm 32.0 SSE 8 14 1010.5 - 0.0 - - - - - - -
21/02:00pm 32.3 SE 7 11 1011.1 - 0.0 - - - - - - -
21/01:30pm 32.5 SSE 6 11 1011.4 - 0.0 - - - - - - -
21/01:00pm 31.5 N 4 6 1011.9 - 0.0 - - - - - - -
21/12:30pm 30.2 W 5 8 1012.4 - 0.0 - - - - - - -
21/12:00pm 30.8 WNW 7 9 1012.9 - 0.0 - - - - - - -
21/11:30am 31.0 NNW 6 9 1013.3 - 0.0 - - - - - - -
21/11:00am 31.8 ENE 6 10 1013.5 - 0.0 - - - - - - -
21/10:30am 30.4 ENE 7 10 1013.8 - 0.0 - - - - - - -
21/10:00am 29.9 E 6 9 1013.9 - 0.0 - - - - - - -
21/09:30am 28.9 E 7 11 1013.8 - 0.0 - - - - - - -
21/09:00am 27.6 E 6 10 1013.8 - 0.0 - - - - - - -
21/08:30am 26.3 ENE 5 8 1013.4 - 0.0 - - - - - - -
21/08:00am 23.6 E 4 6 1013.1 - 0.0 - - - - - - -
21/07:30am 21.3 ENE 4 5 1012.9 - 0.0 - - - - - - -
21/07:00am 21.8 E 5 7 1012.8 - 0.0 - - - - - - -
21/06:30am 21.0 E 5 6 1012.7 - 0.0 - - - - - - -
21/06:00am 21.8 E 5 6 1012.5 - 0.0 - - - - - - -
21/05:30am 22.0 E 5 6 1012.5 - 0.0 - - - - - - -
21/05:00am 22.9 E 6 8 1012.3 - 0.0 - - - - - - -
21/04:30am 22.8 ESE 3 5 1012.0 - 0.0 - - - - - - -
21/04:00am 23.9 E 5 6 1011.9 - 0.0 - - - - - - -
21/03:30am 23.7 E 6 7 1012.1 - 0.0 - - - - - - -
21/03:00am 23.1 ESE 5 6 1012.0 - 0.0 - - - - - - -
21/02:30am 22.9 CALM 0 0 1012.0 - 0.0 - - - - - - -
21/02:00am 24.0 NW 3 6 1011.9 - 0.0 - - - - - - -
21/01:30am 25.6 NW 5 7 1012.0 - 0.0 - - - - - - -
21/01:00am 25.8 NW 6 7 1012.2 - 0.0 - - - - - - -
21/12:30am 26.2 WNW 6 8 1012.2 - 0.0 - - - - - - -
21/12:00am 26.3 WNW 7 9 1012.4 - 0.0 - - - - - - -
 
Date/Time
CST
Temp
°C
Wind Pressure Rain since
9am
mm
Weather Cloud Vis
km
Sea
Height
m
Swell
Dir  Spd
kts
Gust
kts
hPa Trend Height
m
Period
s
Dir
20/11:30pm 26.4 WNW 7 9 1012.4 - 0.0 - - - - - - -
20/11:00pm 26.4 WNW 6 8 1012.4 - 0.0 - - - - - - -
20/10:30pm 26.3 WNW 7 9 1012.2 - 0.0 - - - - - - -
20/10:00pm 26.3 NW 8 10 1011.9 - 0.0 - - - - - - -
20/09:30pm 26.4 WNW 8 10 1011.8 - 0.0 - - - - - - -
20/09:00pm 26.5 WNW 8 11 1011.8 - 0.0 - - - - - - -
20/08:30pm 26.6 WNW 10 12 1011.7 - 0.0 - - - - - - -
20/08:00pm 26.6 NNW 9 11 1011.4 - 0.0 - - - - - - -
20/07:30pm 26.8 NNW 11 14 1011.0 - 0.0 - - - - - - -
20/07:00pm 27.3 NNW 10 13 1010.9 - 0.0 - - - - - - -
20/06:30pm 28.2 NNW 10 13 1010.8 - 0.0 - - - - - - -
20/06:00pm 29.5 NNW 10 14 1010.5 - 0.0 - - - - - - -

Other Formats:

Comma delimited format used in spreadsheet applications
http://www.bom.gov.au/fwo/IDD60701/IDD60701.94122.axf

JavaScript Object Notation format (JSON) in row-major order
http://www.bom.gov.au/fwo/IDD60701/IDD60701.94122.json